sensor_id;sensor_type;location;lat;lon;timestamp;P1;durP1;ratioP1;P2;durP2;ratioP2
76935;SDS011;65881;52.438;16.744;2023-09-30T00:00:16;13.85;;;10.45;;
76935;SDS011;65881;52.438;16.744;2023-09-30T00:02:42;13.70;;;9.73;;
76935;SDS011;65881;52.438;16.744;2023-09-30T00:05:08;16.77;;;11.88;;
76935;SDS011;65881;52.438;16.744;2023-09-30T00:07:35;13.57;;;10.52;;
76935;SDS011;65881;52.438;16.744;2023-09-30T00:10:01;15.10;;;9.55;;
76935;SDS011;65881;52.438;16.744;2023-09-30T00:12:28;13.10;;;9.40;;
76935;SDS011;65881;52.438;16.744;2023-09-30T00:14:55;15.00;;;8.85;;
76935;SDS011;65881;52.438;16.744;2023-09-30T00:17:21;11.48;;;9.73;;
76935;SDS011;65881;52.438;16.744;2023-09-30T00:19:47;12.90;;;10.02;;
76935;SDS011;65881;52.438;16.744;2023-09-30T00:22:12;14.85;;;9.48;;
76935;SDS011;65881;52.438;16.744;2023-09-30T00:24:38;15.38;;;11.50;;
76935;SDS011;65881;52.438;16.744;2023-09-30T00:27:03;12.13;;;10.55;;
76935;SDS011;65881;52.438;16.744;2023-09-30T00:29:29;13.02;;;9.45;;
76935;SDS011;65881;52.438;16.744;2023-09-30T00:31:55;12.00;;;10.15;;
76935;SDS011;65881;52.438;16.744;2023-09-30T00:34:20;10.63;;;9.20;;
76935;SDS011;65881;52.438;16.744;2023-09-30T00:36:46;11.30;;;9.27;;
76935;SDS011;65881;52.438;16.744;2023-09-30T00:39:12;10.13;;;8.93;;
76935;SDS011;65881;52.438;16.744;2023-09-30T00:41:38;11.45;;;9.13;;
76935;SDS011;65881;52.438;16.744;2023-09-30T00:44:05;12.32;;;9.35;;
76935;SDS011;65881;52.438;16.744;2023-09-30T00:46:35;10.57;;;9.23;;
76935;SDS011;65881;52.438;16.744;2023-09-30T00:49:02;14.40;;;9.07;;
76935;SDS011;65881;52.438;16.744;2023-09-30T00:51:28;12.43;;;8.60;;
76935;SDS011;65881;52.438;16.744;2023-09-30T00:53:56;11.32;;;9.55;;
76935;SDS011;65881;52.438;16.744;2023-09-30T00:56:25;13.95;;;9.77;;
76935;SDS011;65881;52.438;16.744;2023-09-30T00:58:52;14.88;;;9.90;;
76935;SDS011;65881;52.438;16.744;2023-09-30T01:01:19;11.15;;;9.10;;
76935;SDS011;65881;52.438;16.744;2023-09-30T01:03:45;12.52;;;9.40;;
76935;SDS011;65881;52.438;16.744;2023-09-30T01:06:12;10.82;;;9.57;;
76935;SDS011;65881;52.438;16.744;2023-09-30T01:08:38;10.25;;;8.30;;
76935;SDS011;65881;52.438;16.744;2023-09-30T01:11:04;10.25;;;8.65;;
76935;SDS011;65881;52.438;16.744;2023-09-30T01:13:37;12.23;;;9.80;;
76935;SDS011;65881;52.438;16.744;2023-09-30T01:16:04;11.32;;;8.88;;
76935;SDS011;65881;52.438;16.744;2023-09-30T01:18:37;15.05;;;8.52;;
76935;SDS011;65881;52.438;16.744;2023-09-30T01:21:03;10.52;;;8.77;;
76935;SDS011;65881;52.438;16.744;2023-09-30T01:23:31;11.77;;;9.07;;
76935;SDS011;65881;52.438;16.744;2023-09-30T01:26:00;11.32;;;8.77;;
76935;SDS011;65881;52.438;16.744;2023-09-30T01:28:37;11.98;;;9.23;;
76935;SDS011;65881;52.438;16.744;2023-09-30T01:31:04;12.35;;;9.77;;
76935;SDS011;65881;52.438;16.744;2023-09-30T01:33:30;14.32;;;8.93;;
76935;SDS011;65881;52.438;16.744;2023-09-30T01:35:57;10.05;;;8.95;;
76935;SDS011;65881;52.438;16.744;2023-09-30T01:38:23;10.30;;;8.88;;
76935;SDS011;65881;52.438;16.744;2023-09-30T01:40:49;12.50;;;9.07;;
76935;SDS011;65881;52.438;16.744;2023-09-30T01:43:14;12.68;;;9.80;;
76935;SDS011;65881;52.438;16.744;2023-09-30T01:45:41;13.23;;;8.93;;
76935;SDS011;65881;52.438;16.744;2023-09-30T01:48:07;12.85;;;9.18;;
76935;SDS011;65881;52.438;16.744;2023-09-30T01:50:36;11.85;;;9.65;;
76935;SDS011;65881;52.438;16.744;2023-09-30T01:55:34;11.02;;;9.20;;
76935;SDS011;65881;52.438;16.744;2023-09-30T01:58:01;13.25;;;9.45;;
76935;SDS011;65881;52.438;16.744;2023-09-30T02:00:26;13.70;;;9.65;;
76935;SDS011;65881;52.438;16.744;2023-09-30T02:02:53;17.02;;;10.20;;
76935;SDS011;65881;52.438;16.744;2023-09-30T02:05:23;11.75;;;10.35;;
76935;SDS011;65881;52.438;16.744;2023-09-30T02:07:49;16.73;;;10.70;;
76935;SDS011;65881;52.438;16.744;2023-09-30T02:10:16;13.35;;;10.77;;
76935;SDS011;65881;52.438;16.744;2023-09-30T02:12:45;13.25;;;10.80;;
76935;SDS011;65881;52.438;16.744;2023-09-30T02:15:11;16.75;;;11.10;;
76935;SDS011;65881;52.438;16.744;2023-09-30T02:17:37;14.63;;;11.30;;
76935;SDS011;65881;52.438;16.744;2023-09-30T02:20:03;17.15;;;12.30;;
76935;SDS011;65881;52.438;16.744;2023-09-30T02:22:37;14.38;;;12.88;;
76935;SDS011;65881;52.438;16.744;2023-09-30T02:25:03;19.88;;;12.73;;
76935;SDS011;65881;52.438;16.744;2023-09-30T02:27:32;16.88;;;12.95;;
76935;SDS011;65881;52.438;16.744;2023-09-30T02:29:58;14.50;;;11.95;;
76935;SDS011;65881;52.438;16.744;2023-09-30T02:32:23;15.98;;;12.05;;
76935;SDS011;65881;52.438;16.744;2023-09-30T02:34:49;15.95;;;11.82;;
76935;SDS011;65881;52.438;16.744;2023-09-30T02:37:15;15.57;;;13.00;;
76935;SDS011;65881;52.438;16.744;2023-09-30T02:39:43;16.45;;;13.93;;
76935;SDS011;65881;52.438;16.744;2023-09-30T02:42:09;16.45;;;12.90;;
76935;SDS011;65881;52.438;16.744;2023-09-30T02:44:35;15.63;;;13.88;;
76935;SDS011;65881;52.438;16.744;2023-09-30T02:47:01;14.45;;;12.25;;
76935;SDS011;65881;52.438;16.744;2023-09-30T02:49:27;19.80;;;13.40;;
76935;SDS011;65881;52.438;16.744;2023-09-30T02:51:53;16.98;;;13.32;;
76935;SDS011;65881;52.438;16.744;2023-09-30T02:54:18;14.52;;;11.75;;
76935;SDS011;65881;52.438;16.744;2023-09-30T02:56:44;17.80;;;13.77;;
76935;SDS011;65881;52.438;16.744;2023-09-30T02:59:12;18.92;;;12.52;;
76935;SDS011;65881;52.438;16.744;2023-09-30T03:01:40;17.55;;;12.25;;
76935;SDS011;65881;52.438;16.744;2023-09-30T03:04:06;14.63;;;12.65;;
76935;SDS011;65881;52.438;16.744;2023-09-30T03:06:32;16.42;;;11.15;;
76935;SDS011;65881;52.438;16.744;2023-09-30T03:09:02;14.82;;;12.45;;
76935;SDS011;65881;52.438;16.744;2023-09-30T03:14:00;16.30;;;12.55;;
76935;SDS011;65881;52.438;16.744;2023-09-30T03:16:25;12.35;;;10.63;;
76935;SDS011;65881;52.438;16.744;2023-09-30T03:18:51;18.80;;;11.63;;
76935;SDS011;65881;52.438;16.744;2023-09-30T03:21:17;18.77;;;11.38;;
76935;SDS011;65881;52.438;16.744;2023-09-30T03:23:44;14.98;;;10.93;;
76935;SDS011;65881;52.438;16.744;2023-09-30T03:26:10;14.38;;;10.32;;
76935;SDS011;65881;52.438;16.744;2023-09-30T03:28:36;13.23;;;10.10;;
76935;SDS011;65881;52.438;16.744;2023-09-30T03:31:03;13.57;;;10.00;;
76935;SDS011;65881;52.438;16.744;2023-09-30T03:33:30;13.43;;;9.43;;
76935;SDS011;65881;52.438;16.744;2023-09-30T03:35:57;12.88;;;8.73;;
76935;SDS011;65881;52.438;16.744;2023-09-30T03:38:23;13.20;;;9.45;;
76935;SDS011;65881;52.438;16.744;2023-09-30T03:40:50;11.00;;;8.60;;
76935;SDS011;65881;52.438;16.744;2023-09-30T03:43:18;11.43;;;6.88;;
76935;SDS011;65881;52.438;16.744;2023-09-30T03:45:44;14.18;;;7.97;;
76935;SDS011;65881;52.438;16.744;2023-09-30T03:48:10;12.15;;;7.68;;
76935;SDS011;65881;52.438;16.744;2023-09-30T03:50:37;13.88;;;6.70;;
76935;SDS011;65881;52.438;16.744;2023-09-30T03:53:03;9.23;;;5.85;;
76935;SDS011;65881;52.438;16.744;2023-09-30T03:55:32;7.10;;;5.25;;
76935;SDS011;65881;52.438;16.744;2023-09-30T03:57:59;7.78;;;5.03;;
76935;SDS011;65881;52.438;16.744;2023-09-30T04:00:24;5.40;;;3.92;;
76935;SDS011;65881;52.438;16.744;2023-09-30T04:02:51;4.72;;;2.63;;
76935;SDS011;65881;52.438;16.744;2023-09-30T04:05:23;4.25;;;2.75;;
76935;SDS011;65881;52.438;16.744;2023-09-30T04:07:59;6.00;;;3.42;;
76935;SDS011;65881;52.438;16.744;2023-09-30T04:10:24;7.57;;;2.72;;
76935;SDS011;65881;52.438;16.744;2023-09-30T04:12:53;6.70;;;3.08;;
76935;SDS011;65881;52.438;16.744;2023-09-30T04:15:19;5.50;;;3.78;;
76935;SDS011;65881;52.438;16.744;2023-09-30T04:17:44;4.40;;;3.00;;
76935;SDS011;65881;52.438;16.744;2023-09-30T04:20:10;5.35;;;2.50;;
76935;SDS011;65881;52.438;16.744;2023-09-30T04:22:41;3.08;;;2.50;;
76935;SDS011;65881;52.438;16.744;2023-09-30T04:25:11;5.32;;;2.70;;
76935;SDS011;65881;52.438;16.744;2023-09-30T04:27:37;5.22;;;2.65;;
76935;SDS011;65881;52.438;16.744;2023-09-30T04:30:03;4.78;;;3.05;;
76935;SDS011;65881;52.438;16.744;2023-09-30T04:32:36;6.95;;;2.63;;
76935;SDS011;65881;52.438;16.744;2023-09-30T04:35:02;5.55;;;2.40;;
76935;SDS011;65881;52.438;16.744;2023-09-30T04:37:32;4.95;;;2.38;;
76935;SDS011;65881;52.438;16.744;2023-09-30T04:39:58;5.25;;;2.58;;
76935;SDS011;65881;52.438;16.744;2023-09-30T04:42:23;5.75;;;2.90;;
76935;SDS011;65881;52.438;16.744;2023-09-30T04:44:50;8.07;;;3.92;;
76935;SDS011;65881;52.438;16.744;2023-09-30T04:47:19;12.40;;;4.93;;
76935;SDS011;65881;52.438;16.744;2023-09-30T04:49:45;9.10;;;5.00;;
76935;SDS011;65881;52.438;16.744;2023-09-30T04:52:10;8.38;;;4.47;;
76935;SDS011;65881;52.438;16.744;2023-09-30T04:54:36;8.10;;;4.80;;
76935;SDS011;65881;52.438;16.744;2023-09-30T04:57:02;9.07;;;4.05;;
76935;SDS011;65881;52.438;16.744;2023-09-30T04:59:28;11.10;;;4.28;;
76935;SDS011;65881;52.438;16.744;2023-09-30T05:01:55;10.68;;;3.55;;
76935;SDS011;65881;52.438;16.744;2023-09-30T05:04:22;7.40;;;3.97;;
76935;SDS011;65881;52.438;16.744;2023-09-30T05:06:51;11.80;;;3.53;;
76935;SDS011;65881;52.438;16.744;2023-09-30T05:09:16;12.65;;;3.58;;
76935;SDS011;65881;52.438;16.744;2023-09-30T05:11:42;10.85;;;3.95;;
76935;SDS011;65881;52.438;16.744;2023-09-30T05:14:09;10.77;;;4.35;;
76935;SDS011;65881;52.438;16.744;2023-09-30T05:16:35;11.07;;;2.97;;
76935;SDS011;65881;52.438;16.744;2023-09-30T05:19:01;10.05;;;3.45;;
76935;SDS011;65881;52.438;16.744;2023-09-30T05:21:27;11.02;;;4.13;;
76935;SDS011;65881;52.438;16.744;2023-09-30T05:23:53;7.15;;;3.00;;
76935;SDS011;65881;52.438;16.744;2023-09-30T05:26:19;8.20;;;2.75;;
76935;SDS011;65881;52.438;16.744;2023-09-30T05:28:44;8.25;;;3.17;;
76935;SDS011;65881;52.438;16.744;2023-09-30T05:31:10;7.00;;;3.75;;
76935;SDS011;65881;52.438;16.744;2023-09-30T05:33:36;5.57;;;3.63;;
76935;SDS011;65881;52.438;16.744;2023-09-30T05:36:02;6.75;;;3.10;;
76935;SDS011;65881;52.438;16.744;2023-09-30T05:38:29;12.68;;;3.17;;
76935;SDS011;65881;52.438;16.744;2023-09-30T05:40:56;10.15;;;3.35;;
76935;SDS011;65881;52.438;16.744;2023-09-30T05:43:25;9.23;;;3.13;;
76935;SDS011;65881;52.438;16.744;2023-09-30T05:45:52;7.85;;;3.22;;
76935;SDS011;65881;52.438;16.744;2023-09-30T05:48:20;12.35;;;3.90;;
76935;SDS011;65881;52.438;16.744;2023-09-30T05:50:46;10.40;;;4.13;;
76935;SDS011;65881;52.438;16.744;2023-09-30T05:53:12;7.40;;;2.75;;
76935;SDS011;65881;52.438;16.744;2023-09-30T05:55:39;8.35;;;3.70;;
76935;SDS011;65881;52.438;16.744;2023-09-30T05:58:15;7.88;;;4.10;;
76935;SDS011;65881;52.438;16.744;2023-09-30T06:00:41;9.18;;;3.40;;
76935;SDS011;65881;52.438;16.744;2023-09-30T06:03:08;13.00;;;3.30;;
76935;SDS011;65881;52.438;16.744;2023-09-30T06:05:38;10.88;;;3.10;;
76935;SDS011;65881;52.438;16.744;2023-09-30T06:08:08;10.85;;;4.18;;
76935;SDS011;65881;52.438;16.744;2023-09-30T06:10:39;9.80;;;3.60;;
76935;SDS011;65881;52.438;16.744;2023-09-30T06:13:08;15.05;;;4.53;;
76935;SDS011;65881;52.438;16.744;2023-09-30T06:15:41;12.50;;;3.53;;
76935;SDS011;65881;52.438;16.744;2023-09-30T06:18:08;11.23;;;4.32;;
76935;SDS011;65881;52.438;16.744;2023-09-30T06:20:36;12.80;;;4.20;;
76935;SDS011;65881;52.438;16.744;2023-09-30T06:23:01;10.38;;;4.45;;
76935;SDS011;65881;52.438;16.744;2023-09-30T06:25:27;9.10;;;3.55;;
76935;SDS011;65881;52.438;16.744;2023-09-30T06:27:55;9.35;;;3.60;;
76935;SDS011;65881;52.438;16.744;2023-09-30T06:30:21;17.80;;;4.72;;
76935;SDS011;65881;52.438;16.744;2023-09-30T06:32:49;11.60;;;3.70;;
76935;SDS011;65881;52.438;16.744;2023-09-30T06:35:15;9.93;;;4.00;;
76935;SDS011;65881;52.438;16.744;2023-09-30T06:37:41;10.60;;;4.38;;
76935;SDS011;65881;52.438;16.744;2023-09-30T06:40:10;12.40;;;5.15;;
76935;SDS011;65881;52.438;16.744;2023-09-30T06:42:39;6.88;;;3.08;;
76935;SDS011;65881;52.438;16.744;2023-09-30T06:45:07;12.50;;;4.07;;
76935;SDS011;65881;52.438;16.744;2023-09-30T06:47:35;12.35;;;4.03;;
76935;SDS011;65881;52.438;16.744;2023-09-30T06:50:02;9.18;;;3.47;;
76935;SDS011;65881;52.438;16.744;2023-09-30T06:52:40;9.57;;;4.28;;
76935;SDS011;65881;52.438;16.744;2023-09-30T06:55:07;12.02;;;4.30;;
76935;SDS011;65881;52.438;16.744;2023-09-30T06:57:33;10.50;;;4.38;;
76935;SDS011;65881;52.438;16.744;2023-09-30T07:00:09;11.90;;;3.83;;
76935;SDS011;65881;52.438;16.744;2023-09-30T07:03:00;10.50;;;4.90;;
76935;SDS011;65881;52.438;16.744;2023-09-30T07:05:57;10.15;;;4.05;;
76935;SDS011;65881;52.438;16.744;2023-09-30T07:10:57;11.32;;;3.55;;
76935;SDS011;65881;52.438;16.744;2023-09-30T07:13:23;10.02;;;3.80;;
76935;SDS011;65881;52.438;16.744;2023-09-30T07:15:49;9.30;;;3.55;;
76935;SDS011;65881;52.438;16.744;2023-09-30T07:18:15;10.27;;;3.60;;
76935;SDS011;65881;52.438;16.744;2023-09-30T07:20:42;22.83;;;4.28;;
76935;SDS011;65881;52.438;16.744;2023-09-30T07:23:08;12.30;;;4.22;;
76935;SDS011;65881;52.438;16.744;2023-09-30T07:25:34;15.05;;;3.67;;
76935;SDS011;65881;52.438;16.744;2023-09-30T07:28:00;11.38;;;4.57;;
76935;SDS011;65881;52.438;16.744;2023-09-30T07:30:26;17.23;;;4.70;;
76935;SDS011;65881;52.438;16.744;2023-09-30T07:32:52;12.73;;;3.80;;
76935;SDS011;65881;52.438;16.744;2023-09-30T07:35:18;15.85;;;5.10;;
76935;SDS011;65881;52.438;16.744;2023-09-30T07:37:44;15.02;;;4.88;;
76935;SDS011;65881;52.438;16.744;2023-09-30T07:40:10;10.75;;;4.00;;
76935;SDS011;65881;52.438;16.744;2023-09-30T07:42:43;10.60;;;4.13;;
76935;SDS011;65881;52.438;16.744;2023-09-30T07:45:11;8.00;;;3.70;;
76935;SDS011;65881;52.438;16.744;2023-09-30T07:47:41;7.88;;;3.60;;
76935;SDS011;65881;52.438;16.744;2023-09-30T07:50:09;18.77;;;3.50;;
76935;SDS011;65881;52.438;16.744;2023-09-30T07:52:35;12.50;;;5.03;;
76935;SDS011;65881;52.438;16.744;2023-09-30T07:55:09;8.55;;;3.78;;
76935;SDS011;65881;52.438;16.744;2023-09-30T07:57:35;11.05;;;3.63;;
76935;SDS011;65881;52.438;16.744;2023-09-30T08:00:02;9.50;;;3.15;;
76935;SDS011;65881;52.438;16.744;2023-09-30T08:02:33;10.70;;;4.13;;
76935;SDS011;65881;52.438;16.744;2023-09-30T08:05:01;10.20;;;3.30;;
76935;SDS011;65881;52.438;16.744;2023-09-30T08:07:27;13.57;;;4.22;;
76935;SDS011;65881;52.438;16.744;2023-09-30T08:09:53;18.10;;;3.75;;
76935;SDS011;65881;52.438;16.744;2023-09-30T08:15:11;12.57;;;3.60;;
76935;SDS011;65881;52.438;16.744;2023-09-30T08:17:37;9.43;;;3.97;;
76935;SDS011;65881;52.438;16.744;2023-09-30T08:20:02;9.15;;;3.95;;
76935;SDS011;65881;52.438;16.744;2023-09-30T08:22:29;11.23;;;3.10;;
76935;SDS011;65881;52.438;16.744;2023-09-30T08:24:55;14.10;;;4.43;;
76935;SDS011;65881;52.438;16.744;2023-09-30T08:27:21;11.18;;;3.50;;
76935;SDS011;65881;52.438;16.744;2023-09-30T08:29:49;11.35;;;3.03;;
76935;SDS011;65881;52.438;16.744;2023-09-30T08:34:45;8.40;;;3.70;;
76935;SDS011;65881;52.438;16.744;2023-09-30T08:37:10;11.60;;;3.38;;
76935;SDS011;65881;52.438;16.744;2023-09-30T08:39:44;15.30;;;4.03;;
76935;SDS011;65881;52.438;16.744;2023-09-30T08:42:10;11.05;;;4.43;;
76935;SDS011;65881;52.438;16.744;2023-09-30T08:44:37;10.27;;;4.05;;
76935;SDS011;65881;52.438;16.744;2023-09-30T08:47:05;11.00;;;3.90;;
76935;SDS011;65881;52.438;16.744;2023-09-30T08:49:38;11.52;;;3.40;;
76935;SDS011;65881;52.438;16.744;2023-09-30T08:52:06;13.43;;;3.70;;
76935;SDS011;65881;52.438;16.744;2023-09-30T08:54:40;10.77;;;3.50;;
76935;SDS011;65881;52.438;16.744;2023-09-30T08:57:07;8.68;;;3.40;;
76935;SDS011;65881;52.438;16.744;2023-09-30T08:59:35;10.45;;;4.05;;
76935;SDS011;65881;52.438;16.744;2023-09-30T09:02:07;11.18;;;3.63;;
76935;SDS011;65881;52.438;16.744;2023-09-30T09:04:34;11.05;;;3.83;;
76935;SDS011;65881;52.438;16.744;2023-09-30T09:07:01;8.13;;;3.30;;
76935;SDS011;65881;52.438;16.744;2023-09-30T09:09:33;7.18;;;3.00;;
76935;SDS011;65881;52.438;16.744;2023-09-30T09:11:58;8.63;;;3.38;;
76935;SDS011;65881;52.438;16.744;2023-09-30T09:14:40;10.20;;;3.35;;
76935;SDS011;65881;52.438;16.744;2023-09-30T09:17:08;10.98;;;3.92;;
76935;SDS011;65881;52.438;16.744;2023-09-30T09:19:35;10.88;;;5.32;;
76935;SDS011;65881;52.438;16.744;2023-09-30T09:22:01;7.60;;;3.00;;
76935;SDS011;65881;52.438;16.744;2023-09-30T09:29:33;9.82;;;3.15;;
76935;SDS011;65881;52.438;16.744;2023-09-30T09:32:09;17.25;;;3.80;;
76935;SDS011;65881;52.438;16.744;2023-09-30T09:34:37;17.58;;;3.88;;
76935;SDS011;65881;52.438;16.744;2023-09-30T09:37:20;21.20;;;3.85;;
76935;SDS011;65881;52.438;16.744;2023-09-30T09:39:54;12.73;;;3.75;;
76935;SDS011;65881;52.438;16.744;2023-09-30T09:42:27;6.55;;;3.25;;
76935;SDS011;65881;52.438;16.744;2023-09-30T09:44:59;9.05;;;3.58;;
76935;SDS011;65881;52.438;16.744;2023-09-30T09:47:27;8.57;;;3.42;;
76935;SDS011;65881;52.438;16.744;2023-09-30T09:49:55;13.30;;;3.15;;
76935;SDS011;65881;52.438;16.744;2023-09-30T09:52:22;12.23;;;2.95;;
76935;SDS011;65881;52.438;16.744;2023-09-30T09:54:49;8.38;;;4.13;;
76935;SDS011;65881;52.438;16.744;2023-09-30T09:57:17;6.85;;;2.80;;
76935;SDS011;65881;52.438;16.744;2023-09-30T09:59:44;5.15;;;2.70;;
76935;SDS011;65881;52.438;16.744;2023-09-30T10:02:15;15.80;;;4.35;;
76935;SDS011;65881;52.438;16.744;2023-09-30T10:04:44;5.43;;;2.60;;
76935;SDS011;65881;52.438;16.744;2023-09-30T10:07:16;8.90;;;3.28;;
76935;SDS011;65881;52.438;16.744;2023-09-30T10:09:48;8.45;;;2.95;;
76935;SDS011;65881;52.438;16.744;2023-09-30T10:12:18;10.82;;;2.75;;
76935;SDS011;65881;52.438;16.744;2023-09-30T10:14:46;8.07;;;3.25;;
76935;SDS011;65881;52.438;16.744;2023-09-30T10:17:13;6.10;;;2.28;;
76935;SDS011;65881;52.438;16.744;2023-09-30T10:22:31;8.65;;;3.38;;
76935;SDS011;65881;52.438;16.744;2023-09-30T10:25:00;7.57;;;2.67;;
76935;SDS011;65881;52.438;16.744;2023-09-30T10:40:51;7.90;;;2.65;;
76935;SDS011;65881;52.438;16.744;2023-09-30T10:43:39;5.82;;;2.92;;
76935;SDS011;65881;52.438;16.744;2023-09-30T10:48:53;6.03;;;2.70;;
76935;SDS011;65881;52.438;16.744;2023-09-30T10:51:19;7.05;;;2.30;;
76935;SDS011;65881;52.438;16.744;2023-09-30T10:53:55;9.45;;;2.63;;
76935;SDS011;65881;52.438;16.744;2023-09-30T10:56:31;10.20;;;2.92;;
76935;SDS011;65881;52.438;16.744;2023-09-30T10:58:58;7.57;;;3.38;;
76935;SDS011;65881;52.438;16.744;2023-09-30T11:01:53;15.13;;;2.60;;
76935;SDS011;65881;52.438;16.744;2023-09-30T11:04:21;6.72;;;2.50;;
76935;SDS011;65881;52.438;16.744;2023-09-30T11:06:50;8.63;;;2.88;;
76935;SDS011;65881;52.438;16.744;2023-09-30T11:09:20;9.32;;;2.97;;
76935;SDS011;65881;52.438;16.744;2023-09-30T11:11:59;9.07;;;2.92;;
76935;SDS011;65881;52.438;16.744;2023-09-30T11:14:29;9.10;;;3.00;;
76935;SDS011;65881;52.438;16.744;2023-09-30T11:16:57;4.28;;;2.45;;
76935;SDS011;65881;52.438;16.744;2023-09-30T11:19:47;8.52;;;3.13;;
76935;SDS011;65881;52.438;16.744;2023-09-30T11:22:14;12.10;;;2.88;;
76935;SDS011;65881;52.438;16.744;2023-09-30T11:24:40;16.05;;;3.95;;
76935;SDS011;65881;52.438;16.744;2023-09-30T11:27:06;8.18;;;3.15;;
76935;SDS011;65881;52.438;16.744;2023-09-30T11:29:32;10.52;;;3.10;;
76935;SDS011;65881;52.438;16.744;2023-09-30T11:31:58;6.45;;;3.33;;
76935;SDS011;65881;52.438;16.744;2023-09-30T11:34:33;6.22;;;2.33;;
76935;SDS011;65881;52.438;16.744;2023-09-30T11:37:01;5.90;;;2.38;;
76935;SDS011;65881;52.438;16.744;2023-09-30T11:39:28;5.72;;;2.67;;
76935;SDS011;65881;52.438;16.744;2023-09-30T11:41:55;7.43;;;2.40;;
76935;SDS011;65881;52.438;16.744;2023-09-30T11:44:22;6.25;;;2.83;;
76935;SDS011;65881;52.438;16.744;2023-09-30T11:46:55;11.32;;;3.15;;
76935;SDS011;65881;52.438;16.744;2023-09-30T11:49:33;6.45;;;2.78;;
76935;SDS011;65881;52.438;16.744;2023-09-30T11:52:09;6.45;;;3.00;;
76935;SDS011;65881;52.438;16.744;2023-09-30T11:57:08;8.40;;;2.95;;
76935;SDS011;65881;52.438;16.744;2023-09-30T11:59:35;8.52;;;2.20;;
76935;SDS011;65881;52.438;16.744;2023-09-30T12:02:02;9.13;;;3.38;;
76935;SDS011;65881;52.438;16.744;2023-09-30T12:04:28;6.40;;;2.60;;
76935;SDS011;65881;52.438;16.744;2023-09-30T12:06:54;8.82;;;2.83;;
76935;SDS011;65881;52.438;16.744;2023-09-30T12:09:22;9.25;;;2.80;;
76935;SDS011;65881;52.438;16.744;2023-09-30T12:11:50;7.70;;;2.80;;
76935;SDS011;65881;52.438;16.744;2023-09-30T12:14:19;6.68;;;2.60;;
76935;SDS011;65881;52.438;16.744;2023-09-30T12:16:45;7.72;;;2.83;;
76935;SDS011;65881;52.438;16.744;2023-09-30T12:19:19;8.40;;;2.60;;
76935;SDS011;65881;52.438;16.744;2023-09-30T12:21:45;7.88;;;3.08;;
76935;SDS011;65881;52.438;16.744;2023-09-30T12:24:13;6.35;;;3.60;;
76935;SDS011;65881;52.438;16.744;2023-09-30T12:26:41;7.95;;;3.08;;
76935;SDS011;65881;52.438;16.744;2023-09-30T12:29:13;12.63;;;2.80;;
76935;SDS011;65881;52.438;16.744;2023-09-30T12:31:49;4.45;;;2.88;;
76935;SDS011;65881;52.438;16.744;2023-09-30T12:34:16;8.60;;;2.30;;
76935;SDS011;65881;52.438;16.744;2023-09-30T12:36:42;8.90;;;2.65;;
76935;SDS011;65881;52.438;16.744;2023-09-30T12:39:09;9.75;;;2.70;;
76935;SDS011;65881;52.438;16.744;2023-09-30T12:41:42;9.50;;;3.10;;
76935;SDS011;65881;52.438;16.744;2023-09-30T12:44:08;6.32;;;2.38;;
76935;SDS011;65881;52.438;16.744;2023-09-30T12:46:36;9.48;;;2.78;;
76935;SDS011;65881;52.438;16.744;2023-09-30T12:49:08;8.50;;;2.40;;
76935;SDS011;65881;52.438;16.744;2023-09-30T12:51:34;7.90;;;2.95;;
76935;SDS011;65881;52.438;16.744;2023-09-30T12:54:01;6.65;;;2.33;;
76935;SDS011;65881;52.438;16.744;2023-09-30T12:56:27;5.95;;;2.80;;
76935;SDS011;65881;52.438;16.744;2023-09-30T12:58:58;9.25;;;2.20;;
76935;SDS011;65881;52.438;16.744;2023-09-30T13:01:24;8.60;;;2.50;;
76935;SDS011;65881;52.438;16.744;2023-09-30T13:03:50;8.68;;;3.17;;
76935;SDS011;65881;52.438;16.744;2023-09-30T13:06:16;7.82;;;2.83;;
76935;SDS011;65881;52.438;16.744;2023-09-30T13:08:43;6.05;;;2.22;;
76935;SDS011;65881;52.438;16.744;2023-09-30T13:11:08;9.07;;;2.65;;
76935;SDS011;65881;52.438;16.744;2023-09-30T13:13:36;9.48;;;3.05;;
76935;SDS011;65881;52.438;16.744;2023-09-30T13:16:03;8.32;;;2.78;;
76935;SDS011;65881;52.438;16.744;2023-09-30T13:18:36;8.40;;;2.70;;
76935;SDS011;65881;52.438;16.744;2023-09-30T13:21:03;6.35;;;2.45;;
76935;SDS011;65881;52.438;16.744;2023-09-30T13:23:31;9.05;;;3.13;;
76935;SDS011;65881;52.438;16.744;2023-09-30T13:25:56;6.90;;;2.58;;
76935;SDS011;65881;52.438;16.744;2023-09-30T13:28:22;7.22;;;2.28;;
76935;SDS011;65881;52.438;16.744;2023-09-30T13:30:51;5.32;;;2.03;;
76935;SDS011;65881;52.438;16.744;2023-09-30T13:33:17;7.15;;;3.10;;
76935;SDS011;65881;52.438;16.744;2023-09-30T13:35:45;9.00;;;2.83;;
76935;SDS011;65881;52.438;16.744;2023-09-30T13:38:11;5.20;;;2.17;;
76935;SDS011;65881;52.438;16.744;2023-09-30T13:40:36;13.23;;;2.72;;
76935;SDS011;65881;52.438;16.744;2023-09-30T13:43:05;4.60;;;2.53;;
76935;SDS011;65881;52.438;16.744;2023-09-30T13:45:32;5.85;;;2.40;;
76935;SDS011;65881;52.438;16.744;2023-09-30T13:47:59;8.35;;;2.70;;
76935;SDS011;65881;52.438;16.744;2023-09-30T13:50:25;7.57;;;2.47;;
76935;SDS011;65881;52.438;16.744;2023-09-30T13:52:51;7.88;;;2.50;;
76935;SDS011;65881;52.438;16.744;2023-09-30T13:55:18;9.85;;;3.10;;
76935;SDS011;65881;52.438;16.744;2023-09-30T13:57:47;4.60;;;2.35;;
76935;SDS011;65881;52.438;16.744;2023-09-30T14:00:14;5.18;;;2.28;;
76935;SDS011;65881;52.438;16.744;2023-09-30T14:02:43;7.95;;;2.53;;
76935;SDS011;65881;52.438;16.744;2023-09-30T14:05:09;4.45;;;2.63;;
76935;SDS011;65881;52.438;16.744;2023-09-30T14:07:36;7.60;;;2.70;;
76935;SDS011;65881;52.438;16.744;2023-09-30T14:10:03;7.75;;;2.45;;
76935;SDS011;65881;52.438;16.744;2023-09-30T14:12:31;7.80;;;2.50;;
76935;SDS011;65881;52.438;16.744;2023-09-30T14:14:57;9.02;;;2.60;;
76935;SDS011;65881;52.438;16.744;2023-09-30T14:17:23;12.18;;;2.42;;
76935;SDS011;65881;52.438;16.744;2023-09-30T14:19:50;11.77;;;3.25;;
76935;SDS011;65881;52.438;16.744;2023-09-30T14:22:17;6.57;;;2.53;;
76935;SDS011;65881;52.438;16.744;2023-09-30T14:24:43;8.73;;;3.22;;
76935;SDS011;65881;52.438;16.744;2023-09-30T14:27:10;6.13;;;2.53;;
76935;SDS011;65881;52.438;16.744;2023-09-30T14:29:36;10.15;;;3.63;;
76935;SDS011;65881;52.438;16.744;2023-09-30T14:32:02;10.95;;;2.70;;
76935;SDS011;65881;52.438;16.744;2023-09-30T14:34:27;10.23;;;2.60;;
76935;SDS011;65881;52.438;16.744;2023-09-30T14:36:53;12.75;;;3.40;;
76935;SDS011;65881;52.438;16.744;2023-09-30T14:39:19;8.88;;;2.95;;
76935;SDS011;65881;52.438;16.744;2023-09-30T14:41:45;8.68;;;2.67;;
76935;SDS011;65881;52.438;16.744;2023-09-30T14:44:11;8.48;;;2.30;;
76935;SDS011;65881;52.438;16.744;2023-09-30T14:46:39;6.07;;;2.38;;
76935;SDS011;65881;52.438;16.744;2023-09-30T14:49:05;9.82;;;2.70;;
76935;SDS011;65881;52.438;16.744;2023-09-30T14:51:32;12.13;;;3.30;;
76935;SDS011;65881;52.438;16.744;2023-09-30T14:54:12;9.75;;;2.65;;
76935;SDS011;65881;52.438;16.744;2023-09-30T14:56:38;9.25;;;3.03;;
76935;SDS011;65881;52.438;16.744;2023-09-30T14:59:04;7.15;;;2.70;;
76935;SDS011;65881;52.438;16.744;2023-09-30T15:01:30;7.55;;;2.60;;
76935;SDS011;65881;52.438;16.744;2023-09-30T15:03:56;8.10;;;3.58;;
76935;SDS011;65881;52.438;16.744;2023-09-30T15:06:22;8.10;;;2.90;;
76935;SDS011;65881;52.438;16.744;2023-09-30T15:08:49;8.27;;;3.25;;